Cygnus — 9HA2105 — position and weather

sailwx.info

Track history (hours):
 
Tides and Currents Weather Stations Pressure Air Temp Water Temp Dewpoint Dewpoint Depression Visibility Wind Speed Wind Dir Waves Ship Positions

Cygnus

Last reported at 2014-Oct-04 15:07 UTC. Time now 2014-Oct-25 07:54 UTC.
Position N 35°59' W 008°46'.
Warning: this ship's position is 20 days out of date.

Length 177 m; draft 9.7 m.

Type: Cargo ship. MMSI: 249963000.

Date/timePositionNaut miles runAvg speedWind from/ knotsBaromVisibWave heightAir tempDewpointWater temp
2014-Oct-04 15:07N 35°59' W 008°46'2313.2
2014-Oct-04 13:20N 36°21' W 008°58'8412.3
2014-Oct-04 06:33N 37°35' W 009°48'1313.0
2014-Oct-04 05:33N 37°47' W 009°51'1312.9
2014-Oct-04 04:32N 38°00' W 009°56'1313.1
2014-Oct-04 03:33N 38°13' W 009°59'  
2014-Oct-01 03:34N 49°31' W 000°10'1111.0
2014-Oct-01 02:34N 49°26' E 000°05'1110.5
2014-Oct-01 01:34N 49°26' E 000°21'7 7.3
2014-Oct-01 00:33N 49°28' E 000°32'5 5.0
2014-Sep-30 23:33N 49°27' E 000°40'  
2014-Sep-26 22:22N 49°27' E 000°40'8 9.0
2014-Sep-26 21:31N 49°28' E 000°28'1010.1
2014-Sep-26 20:33N 49°26' E 000°14'1212.2
2014-Sep-26 19:33N 49°29' W 000°04'2 2.3
2014-Sep-26 18:30N 49°28' W 000°08'0 0.0
2014-Sep-26 17:33N 49°28' W 000°08'0 0.0
2014-Sep-26 16:33N 49°28' W 000°08'0 0.0
2014-Sep-26 15:33N 49°28' W 000°08'0 0.0
2014-Sep-26 14:30N 49°28' W 000°08'0 0.1
2014-Sep-26 13:30N 49°28' W 000°08'0 0.0
2014-Sep-26 12:30N 49°28' W 000°08'0 0.0
2014-Sep-26 11:24N 49°29' W 000°08'0 0.0
2014-Sep-26 10:33N 49°29' W 000°08'0 0.0
2014-Sep-26 09:30N 49°29' W 000°08'0 0.0
2014-Sep-26 08:33N 49°29' W 000°08'0 0.0
2014-Sep-26 07:27N 49°28' W 000°08'0 0.1
2014-Sep-26 06:30N 49°28' W 000°08'0 0.1
2014-Sep-26 05:30N 49°29' W 000°08'0 0.0
2014-Sep-26 04:30N 49°29' W 000°08'0 0.0
2014-Sep-26 03:30N 49°29' W 000°08'0 0.1
2014-Sep-26 02:30N 49°29' W 000°08'0 0.1
2014-Sep-26 01:33N 49°29' W 000°08'0 0.1
2014-Sep-26 00:30N 49°29' W 000°08'0 0.0
2014-Sep-25 23:33N 49°29' W 000°08'0 0.0
2014-Sep-25 22:30N 49°29' W 000°08'0 0.0
2014-Sep-25 21:33N 49°29' W 000°08'0 0.0
2014-Sep-25 20:30N 49°29' W 000°08'0 0.1
2014-Sep-25 19:30N 49°28' W 000°08'0 0.1
2014-Sep-25 18:30N 49°28' W 000°08'0 0.1
2014-Sep-25 17:33N 49°28' W 000°08'0 0.0
2014-Sep-25 16:33N 49°28' W 000°08'0 0.0
2014-Sep-25 15:33N 49°28' W 000°08'0 0.1
2014-Sep-25 14:30N 49°28' W 000°08'0 0.0
2014-Sep-25 13:30N 49°28' W 000°08'0 0.2
2014-Sep-25 12:33N 49°28' W 000°08'0 0.1
2014-Sep-25 11:30N 49°29' W 000°08'0 0.0
2014-Sep-25 10:29N 49°29' W 000°08'0 0.0
2014-Sep-25 09:29N 49°29' W 000°08'0 0.0
2014-Sep-25 08:32N 49°29' W 000°08'0 0.1
2014-Sep-25 07:29N 49°28' W 000°08'0 0.1
2014-Sep-25 06:29N 49°28' W 000°08'0 0.1
2014-Sep-25 05:29N 49°28' W 000°08'0 0.0
2014-Sep-25 04:32N 49°28' W 000°08'0 0.0
2014-Sep-25 03:29N 49°28' W 000°08'0 0.0
2014-Sep-25 02:32N 49°28' W 000°08'0 0.0
2014-Sep-25 01:32N 49°28' W 000°08'0 0.0
2014-Sep-25 00:32N 49°28' W 000°08'0 0.1
2014-Sep-24 23:32N 49°28' W 000°08'0 0.1
2014-Sep-24 22:29N 49°28' W 000°08'0 0.1
2014-Sep-24 21:29N 49°29' W 000°08'0 0.0
2014-Sep-24 20:32N 49°28' W 000°08'0 0.0
2014-Sep-24 19:29N 49°28' W 000°08'0 0.0
2014-Sep-24 18:29N 49°28' W 000°08'0 0.0
2014-Sep-24 17:32N 49°28' W 000°08'0 0.0
2014-Sep-24 16:29N 49°28' W 000°08'0 0.0
2014-Sep-24 15:29N 49°28' W 000°08'  
Track history (hours):
 
Tides and Currents Weather Stations Pressure Air Temp Water Temp Dewpoint Dewpoint Depression Visibility Wind Speed Wind Dir Waves Ship Positions

Cygnus

Last reported at 2014-Oct-04 15:07 UTC. Time now 2014-Oct-25 07:54 UTC.
Position N 35°59' W 008°46'.
Warning: this ship's position is 20 days out of date.

Length 177 m; draft 9.7 m.

Type: Cargo ship. MMSI: 249963000.

Date/timePositionNaut miles runAvg speedWind from/ knotsBaromVisibWave heightAir tempDewpointWater temp
2014-Oct-04 15:07N 35°59' W 008°46'2313.2
2014-Oct-04 13:20N 36°21' W 008°58'8412.3
2014-Oct-04 06:33N 37°35' W 009°48'1313.0
2014-Oct-04 05:33N 37°47' W 009°51'1312.9
2014-Oct-04 04:32N 38°00' W 009°56'1313.1
2014-Oct-04 03:33N 38°13' W 009°59'  
2014-Oct-01 03:34N 49°31' W 000°10'1111.0
2014-Oct-01 02:34N 49°26' E 000°05'1110.5
2014-Oct-01 01:34N 49°26' E 000°21'7 7.3
2014-Oct-01 00:33N 49°28' E 000°32'5 5.0
2014-Sep-30 23:33N 49°27' E 000°40'  
2014-Sep-26 22:22N 49°27' E 000°40'8 9.0
2014-Sep-26 21:31N 49°28' E 000°28'1010.1
2014-Sep-26 20:33N 49°26' E 000°14'1212.2
2014-Sep-26 19:33N 49°29' W 000°04'2 2.3
2014-Sep-26 18:30N 49°28' W 000°08'0 0.0
2014-Sep-26 17:33N 49°28' W 000°08'0 0.0
2014-Sep-26 16:33N 49°28' W 000°08'0 0.0
2014-Sep-26 15:33N 49°28' W 000°08'0 0.0
2014-Sep-26 14:30N 49°28' W 000°08'0 0.1
2014-Sep-26 13:30N 49°28' W 000°08'0 0.0
2014-Sep-26 12:30N 49°28' W 000°08'0 0.0
2014-Sep-26 11:24N 49°29' W 000°08'0 0.0
2014-Sep-26 10:33N 49°29' W 000°08'0 0.0
2014-Sep-26 09:30N 49°29' W 000°08'0 0.0
2014-Sep-26 08:33N 49°29' W 000°08'0 0.0
2014-Sep-26 07:27N 49°28' W 000°08'0 0.1
2014-Sep-26 06:30N 49°28' W 000°08'0 0.1
2014-Sep-26 05:30N 49°29' W 000°08'0 0.0
2014-Sep-26 04:30N 49°29' W 000°08'0 0.0
2014-Sep-26 03:30N 49°29' W 000°08'0 0.1
2014-Sep-26 02:30N 49°29' W 000°08'0 0.1
2014-Sep-26 01:33N 49°29' W 000°08'0 0.1
2014-Sep-26 00:30N 49°29' W 000°08'0 0.0
2014-Sep-25 23:33N 49°29' W 000°08'0 0.0
2014-Sep-25 22:30N 49°29' W 000°08'0 0.0
2014-Sep-25 21:33N 49°29' W 000°08'0 0.0
2014-Sep-25 20:30N 49°29' W 000°08'0 0.1
2014-Sep-25 19:30N 49°28' W 000°08'0 0.1
2014-Sep-25 18:30N 49°28' W 000°08'0 0.1
2014-Sep-25 17:33N 49°28' W 000°08'0 0.0
2014-Sep-25 16:33N 49°28' W 000°08'0 0.0
2014-Sep-25 15:33N 49°28' W 000°08'0 0.1
2014-Sep-25 14:30N 49°28' W 000°08'0 0.0
2014-Sep-25 13:30N 49°28' W 000°08'0 0.2
2014-Sep-25 12:33N 49°28' W 000°08'0 0.1
2014-Sep-25 11:30N 49°29' W 000°08'0 0.0
2014-Sep-25 10:29N 49°29' W 000°08'0 0.0
2014-Sep-25 09:29N 49°29' W 000°08'0 0.0
2014-Sep-25 08:32N 49°29' W 000°08'0 0.1
2014-Sep-25 07:29N 49°28' W 000°08'0 0.1
2014-Sep-25 06:29N 49°28' W 000°08'0 0.1
2014-Sep-25 05:29N 49°28' W 000°08'0 0.0
2014-Sep-25 04:32N 49°28' W 000°08'0 0.0
2014-Sep-25 03:29N 49°28' W 000°08'0 0.0
2014-Sep-25 02:32N 49°28' W 000°08'0 0.0
2014-Sep-25 01:32N 49°28' W 000°08'0 0.0
2014-Sep-25 00:32N 49°28' W 000°08'0 0.1
2014-Sep-24 23:32N 49°28' W 000°08'0 0.1
2014-Sep-24 22:29N 49°28' W 000°08'0 0.1
2014-Sep-24 21:29N 49°29' W 000°08'0 0.0
2014-Sep-24 20:32N 49°28' W 000°08'0 0.0
2014-Sep-24 19:29N 49°28' W 000°08'0 0.0
2014-Sep-24 18:29N 49°28' W 000°08'0 0.0
2014-Sep-24 17:32N 49°28' W 000°08'0 0.0
2014-Sep-24 16:29N 49°28' W 000°08'0 0.0
2014-Sep-24 15:29N 49°28' W 000°08'  

Dump ship's entire track history